sensor_id;sensor_type;location;lat;lon;timestamp;temperature;humidity
32839;DHT22;19182;41.820;12.808;2023-08-24T00:02:16;23.00;99.90
32839;DHT22;19182;41.820;12.808;2023-08-24T00:04:42;22.90;99.90
32839;DHT22;19182;41.820;12.808;2023-08-24T00:07:08;22.90;99.90
32839;DHT22;19182;41.820;12.808;2023-08-24T00:09:34;23.00;99.90
32839;DHT22;19182;41.820;12.808;2023-08-24T00:12:03;22.90;99.90
32839;DHT22;19182;41.820;12.808;2023-08-24T00:14:29;23.00;99.90
32839;DHT22;19182;41.820;12.808;2023-08-24T00:16:55;23.00;99.90
32839;DHT22;19182;41.820;12.808;2023-08-24T00:19:21;23.10;99.90
32839;DHT22;19182;41.820;12.808;2023-08-24T00:21:47;23.10;99.90
32839;DHT22;19182;41.820;12.808;2023-08-24T00:24:13;23.00;99.90
32839;DHT22;19182;41.820;12.808;2023-08-24T00:26:40;23.00;99.90
32839;DHT22;19182;41.820;12.808;2023-08-24T00:29:06;23.10;99.90
32839;DHT22;19182;41.820;12.808;2023-08-24T00:31:32;23.00;99.90
32839;DHT22;19182;41.820;12.808;2023-08-24T00:33:58;22.90;99.90
32839;DHT22;19182;41.820;12.808;2023-08-24T00:36:24;22.80;99.90
32839;DHT22;19182;41.820;12.808;2023-08-24T00:38:51;22.60;99.90
32839;DHT22;19182;41.820;12.808;2023-08-24T00:41:18;22.60;99.90
32839;DHT22;19182;41.820;12.808;2023-08-24T00:43:47;22.70;99.90
32839;DHT22;19182;41.820;12.808;2023-08-24T00:46:16;23.40;99.90
32839;DHT22;19182;41.820;12.808;2023-08-24T00:48:41;22.40;99.90
32839;DHT22;19182;41.820;12.808;2023-08-24T00:51:08;22.30;99.90
32839;DHT22;19182;41.820;12.808;2023-08-24T00:53:34;22.40;99.90
32839;DHT22;19182;41.820;12.808;2023-08-24T00:56:00;22.50;99.90
32839;DHT22;19182;41.820;12.808;2023-08-24T00:58:27;22.50;99.90
32839;DHT22;19182;41.820;12.808;2023-08-24T01:00:54;22.50;99.90
32839;DHT22;19182;41.820;12.808;2023-08-24T01:03:25;21.80;99.90
32839;DHT22;19182;41.820;12.808;2023-08-24T01:05:51;22.40;99.90
32839;DHT22;19182;41.820;12.808;2023-08-24T01:08:18;22.40;99.90
32839;DHT22;19182;41.820;12.808;2023-08-24T01:11:09;22.50;99.90
32839;DHT22;19182;41.820;12.808;2023-08-24T01:13:59;22.40;99.90
32839;DHT22;19182;41.820;12.808;2023-08-24T01:16:31;22.50;99.90
32839;DHT22;19182;41.820;12.808;2023-08-24T01:19:00;22.50;99.90
32839;DHT22;19182;41.820;12.808;2023-08-24T01:21:28;22.50;99.90
32839;DHT22;19182;41.820;12.808;2023-08-24T01:24:35;22.60;99.90
32839;DHT22;19182;41.820;12.808;2023-08-24T01:27:02;22.60;99.90
32839;DHT22;19182;41.820;12.808;2023-08-24T01:29:30;22.50;99.90
32839;DHT22;19182;41.820;12.808;2023-08-24T01:31:57;22.40;99.90
32839;DHT22;19182;41.820;12.808;2023-08-24T01:34:23;22.50;99.90
32839;DHT22;19182;41.820;12.808;2023-08-24T01:36:49;22.50;99.90
32839;DHT22;19182;41.820;12.808;2023-08-24T01:42:05;22.70;99.90
32839;DHT22;19182;41.820;12.808;2023-08-24T01:44:35;22.60;99.90
32839;DHT22;19182;41.820;12.808;2023-08-24T01:47:04;22.60;99.90
32839;DHT22;19182;41.820;12.808;2023-08-24T01:49:32;22.80;99.90
32839;DHT22;19182;41.820;12.808;2023-08-24T01:51:59;22.80;99.90
32839;DHT22;19182;41.820;12.808;2023-08-24T01:54:27;22.90;99.90
32839;DHT22;19182;41.820;12.808;2023-08-24T01:56:54;22.90;99.90
32839;DHT22;19182;41.820;12.808;2023-08-24T01:59:21;23.00;99.90
32839;DHT22;19182;41.820;12.808;2023-08-24T02:01:47;23.00;99.90
32839;DHT22;19182;41.820;12.808;2023-08-24T02:04:12;23.00;99.90
32839;DHT22;19182;41.820;12.808;2023-08-24T02:06:40;22.90;99.90
32839;DHT22;19182;41.820;12.808;2023-08-24T02:09:06;23.00;99.90
32839;DHT22;19182;41.820;12.808;2023-08-24T02:11:32;23.00;99.90
32839;DHT22;19182;41.820;12.808;2023-08-24T02:13:59;23.10;99.90
32839;DHT22;19182;41.820;12.808;2023-08-24T02:16:27;23.10;99.90
32839;DHT22;19182;41.820;12.808;2023-08-24T02:18:53;22.80;99.90
32839;DHT22;19182;41.820;12.808;2023-08-24T02:21:20;22.80;99.90
32839;DHT22;19182;41.820;12.808;2023-08-24T02:23:46;22.70;99.90
32839;DHT22;19182;41.820;12.808;2023-08-24T02:26:15;22.80;99.90
32839;DHT22;19182;41.820;12.808;2023-08-24T02:28:41;23.00;99.90
32839;DHT22;19182;41.820;12.808;2023-08-24T02:31:06;23.00;99.90
32839;DHT22;19182;41.820;12.808;2023-08-24T02:33:33;22.80;99.90
32839;DHT22;19182;41.820;12.808;2023-08-24T02:35:59;22.60;99.90
32839;DHT22;19182;41.820;12.808;2023-08-24T02:38:25;22.70;99.90
32839;DHT22;19182;41.820;12.808;2023-08-24T02:41:02;22.70;99.90
32839;DHT22;19182;41.820;12.808;2023-08-24T02:43:28;22.80;99.90
32839;DHT22;19182;41.820;12.808;2023-08-24T02:45:53;22.90;99.90
32839;DHT22;19182;41.820;12.808;2023-08-24T02:48:20;22.90;99.90
32839;DHT22;19182;41.820;12.808;2023-08-24T02:50:47;23.00;99.90
32839;DHT22;19182;41.820;12.808;2023-08-24T02:53:13;22.80;99.90
32839;DHT22;19182;41.820;12.808;2023-08-24T02:55:39;22.90;99.90
32839;DHT22;19182;41.820;12.808;2023-08-24T02:58:06;22.80;99.90
32839;DHT22;19182;41.820;12.808;2023-08-24T03:00:33;22.80;99.90
32839;DHT22;19182;41.820;12.808;2023-08-24T03:02:59;22.60;99.90
32839;DHT22;19182;41.820;12.808;2023-08-24T03:05:25;22.50;99.90
32839;DHT22;19182;41.820;12.808;2023-08-24T03:07:51;22.50;99.90
32839;DHT22;19182;41.820;12.808;2023-08-24T03:10:16;22.40;99.90
32839;DHT22;19182;41.820;12.808;2023-08-24T03:12:43;22.40;99.90
32839;DHT22;19182;41.820;12.808;2023-08-24T03:15:10;22.30;99.90
32839;DHT22;19182;41.820;12.808;2023-08-24T03:17:36;22.30;99.90
32839;DHT22;19182;41.820;12.808;2023-08-24T03:20:01;22.30;99.90
32839;DHT22;19182;41.820;12.808;2023-08-24T03:22:28;22.30;99.90
32839;DHT22;19182;41.820;12.808;2023-08-24T03:24:55;22.30;99.90
32839;DHT22;19182;41.820;12.808;2023-08-24T03:27:22;22.40;99.90
32839;DHT22;19182;41.820;12.808;2023-08-24T03:29:47;22.60;99.90
32839;DHT22;19182;41.820;12.808;2023-08-24T03:32:13;22.60;99.90
32839;DHT22;19182;41.820;12.808;2023-08-24T03:34:40;22.60;99.90
32839;DHT22;19182;41.820;12.808;2023-08-24T03:37:05;22.70;99.90
32839;DHT22;19182;41.820;12.808;2023-08-24T03:39:36;22.70;99.90
32839;DHT22;19182;41.820;12.808;2023-08-24T03:42:03;22.60;99.90
32839;DHT22;19182;41.820;12.808;2023-08-24T03:44:29;22.60;99.90
32839;DHT22;19182;41.820;12.808;2023-08-24T03:46:56;22.50;99.90
32839;DHT22;19182;41.820;12.808;2023-08-24T03:49:23;22.60;99.90
32839;DHT22;19182;41.820;12.808;2023-08-24T03:51:49;22.50;99.90
32839;DHT22;19182;41.820;12.808;2023-08-24T03:54:15;22.50;99.90
32839;DHT22;19182;41.820;12.808;2023-08-24T03:56:41;22.50;99.90
32839;DHT22;19182;41.820;12.808;2023-08-24T03:59:06;22.40;99.90
32839;DHT22;19182;41.820;12.808;2023-08-24T04:01:32;22.50;99.90
32839;DHT22;19182;41.820;12.808;2023-08-24T04:03:58;22.50;99.90
32839;DHT22;19182;41.820;12.808;2023-08-24T04:06:24;22.50;99.90
32839;DHT22;19182;41.820;12.808;2023-08-24T04:08:49;22.40;99.90
32839;DHT22;19182;41.820;12.808;2023-08-24T04:11:15;22.40;99.90
32839;DHT22;19182;41.820;12.808;2023-08-24T04:13:41;22.40;99.90
32839;DHT22;19182;41.820;12.808;2023-08-24T04:16:07;22.50;99.90
32839;DHT22;19182;41.820;12.808;2023-08-24T04:18:33;22.40;99.90
32839;DHT22;19182;41.820;12.808;2023-08-24T04:20:58;22.50;99.90
32839;DHT22;19182;41.820;12.808;2023-08-24T04:23:25;22.40;99.90
32839;DHT22;19182;41.820;12.808;2023-08-24T04:25:53;22.30;99.90
32839;DHT22;19182;41.820;12.808;2023-08-24T04:28:19;22.20;99.90
32839;DHT22;19182;41.820;12.808;2023-08-24T04:30:54;22.20;99.90
32839;DHT22;19182;41.820;12.808;2023-08-24T04:33:22;22.20;99.90
32839;DHT22;19182;41.820;12.808;2023-08-24T04:35:49;22.30;99.90
32839;DHT22;19182;41.820;12.808;2023-08-24T04:38:16;22.30;99.90
32839;DHT22;19182;41.820;12.808;2023-08-24T04:40:55;22.20;99.90
32839;DHT22;19182;41.820;12.808;2023-08-24T04:43:23;22.30;99.90
32839;DHT22;19182;41.820;12.808;2023-08-24T04:45:51;22.30;99.90
32839;DHT22;19182;41.820;12.808;2023-08-24T04:48:20;22.30;99.90
32839;DHT22;19182;41.820;12.808;2023-08-24T04:50:47;22.30;99.90
32839;DHT22;19182;41.820;12.808;2023-08-24T04:53:16;22.40;99.90
32839;DHT22;19182;41.820;12.808;2023-08-24T04:55:43;22.40;99.90
32839;DHT22;19182;41.820;12.808;2023-08-24T04:58:09;24.00;99.90
32839;DHT22;19182;41.820;12.808;2023-08-24T05:00:37;22.40;99.90
32839;DHT22;19182;41.820;12.808;2023-08-24T05:03:05;22.60;99.90
32839;DHT22;19182;41.820;12.808;2023-08-24T05:05:32;22.70;99.90
32839;DHT22;19182;41.820;12.808;2023-08-24T05:07:58;22.80;99.90
32839;DHT22;19182;41.820;12.808;2023-08-24T05:10:25;22.80;99.90
32839;DHT22;19182;41.820;12.808;2023-08-24T05:12:50;22.60;99.90
32839;DHT22;19182;41.820;12.808;2023-08-24T05:15:16;22.80;99.90
32839;DHT22;19182;41.820;12.808;2023-08-24T05:17:42;22.90;99.90
32839;DHT22;19182;41.820;12.808;2023-08-24T05:20:09;22.90;99.90
32839;DHT22;19182;41.820;12.808;2023-08-24T05:22:39;22.90;99.90
32839;DHT22;19182;41.820;12.808;2023-08-24T05:25:05;22.90;99.90
32839;DHT22;19182;41.820;12.808;2023-08-24T05:27:31;23.10;99.90
32839;DHT22;19182;41.820;12.808;2023-08-24T05:29:57;23.20;99.90
32839;DHT22;19182;41.820;12.808;2023-08-24T05:32:23;23.40;99.90
32839;DHT22;19182;41.820;12.808;2023-08-24T05:34:50;19.80;99.90
32839;DHT22;19182;41.820;12.808;2023-08-24T05:37:16;23.50;99.90
32839;DHT22;19182;41.820;12.808;2023-08-24T05:39:42;23.60;99.90
32839;DHT22;19182;41.820;12.808;2023-08-24T05:42:10;23.60;99.90
32839;DHT22;19182;41.820;12.808;2023-08-24T05:44:36;23.70;99.90
32839;DHT22;19182;41.820;12.808;2023-08-24T05:47:02;23.80;99.90
32839;DHT22;19182;41.820;12.808;2023-08-24T05:49:28;23.90;99.90
32839;DHT22;19182;41.820;12.808;2023-08-24T05:51:54;23.90;99.90
32839;DHT22;19182;41.820;12.808;2023-08-24T05:54:19;24.20;99.90
32839;DHT22;19182;41.820;12.808;2023-08-24T05:56:46;24.30;99.90
32839;DHT22;19182;41.820;12.808;2023-08-24T05:59:12;24.50;99.90
32839;DHT22;19182;41.820;12.808;2023-08-24T06:01:38;24.70;99.90
32839;DHT22;19182;41.820;12.808;2023-08-24T06:04:08;24.80;99.90
32839;DHT22;19182;41.820;12.808;2023-08-24T06:06:34;24.90;99.90
32839;DHT22;19182;41.820;12.808;2023-08-24T06:09:00;25.00;99.90
32839;DHT22;19182;41.820;12.808;2023-08-24T06:11:27;25.20;99.90
32839;DHT22;19182;41.820;12.808;2023-08-24T06:13:53;25.30;99.90
32839;DHT22;19182;41.820;12.808;2023-08-24T06:16:20;25.50;99.90
32839;DHT22;19182;41.820;12.808;2023-08-24T06:18:45;25.80;99.90
32839;DHT22;19182;41.820;12.808;2023-08-24T06:21:12;26.20;99.90
32839;DHT22;19182;41.820;12.808;2023-08-24T06:23:38;27.00;99.90
32839;DHT22;19182;41.820;12.808;2023-08-24T06:26:04;27.90;99.90
32839;DHT22;19182;41.820;12.808;2023-08-24T06:28:31;28.40;99.90
32839;DHT22;19182;41.820;12.808;2023-08-24T06:30:56;28.90;99.90
32839;DHT22;19182;41.820;12.808;2023-08-24T06:33:27;29.00;99.90
32839;DHT22;19182;41.820;12.808;2023-08-24T06:35:56;29.00;99.90
32839;DHT22;19182;41.820;12.808;2023-08-24T06:38:22;29.10;99.90
32839;DHT22;19182;41.820;12.808;2023-08-24T06:40:48;29.40;99.90
32839;DHT22;19182;41.820;12.808;2023-08-24T06:43:14;29.70;99.90
32839;DHT22;19182;41.820;12.808;2023-08-24T06:45:41;29.80;99.90
32839;DHT22;19182;41.820;12.808;2023-08-24T06:48:06;29.90;99.90
32839;DHT22;19182;41.820;12.808;2023-08-24T06:50:33;29.50;99.90
32839;DHT22;19182;41.820;12.808;2023-08-24T06:52:59;29.90;99.90
32839;DHT22;19182;41.820;12.808;2023-08-24T06:55:26;29.70;99.90
32839;DHT22;19182;41.820;12.808;2023-08-24T06:57:51;29.50;99.90
32839;DHT22;19182;41.820;12.808;2023-08-24T07:00:18;29.50;99.90
32839;DHT22;19182;41.820;12.808;2023-08-24T07:02:48;29.80;99.90
32839;DHT22;19182;41.820;12.808;2023-08-24T07:05:15;30.00;99.90
32839;DHT22;19182;41.820;12.808;2023-08-24T07:07:44;30.50;99.90
32839;DHT22;19182;41.820;12.808;2023-08-24T07:10:11;30.40;99.90
32839;DHT22;19182;41.820;12.808;2023-08-24T07:12:37;30.60;99.90
32839;DHT22;19182;41.820;12.808;2023-08-24T07:15:07;30.80;99.90
32839;DHT22;19182;41.820;12.808;2023-08-24T07:17:33;30.90;99.90
32839;DHT22;19182;41.820;12.808;2023-08-24T07:19:59;30.70;99.90
32839;DHT22;19182;41.820;12.808;2023-08-24T07:22:25;30.70;99.90
32839;DHT22;19182;41.820;12.808;2023-08-24T07:24:55;30.90;99.90
32839;DHT22;19182;41.820;12.808;2023-08-24T07:27:20;30.90;99.90
32839;DHT22;19182;41.820;12.808;2023-08-24T07:29:47;30.90;99.90
32839;DHT22;19182;41.820;12.808;2023-08-24T07:32:12;30.70;99.90
32839;DHT22;19182;41.820;12.808;2023-08-24T07:34:38;30.80;99.90
32839;DHT22;19182;41.820;12.808;2023-08-24T07:37:04;30.90;99.90
32839;DHT22;19182;41.820;12.808;2023-08-24T07:39:32;31.20;99.90
32839;DHT22;19182;41.820;12.808;2023-08-24T07:41:58;31.30;99.90
32839;DHT22;19182;41.820;12.808;2023-08-24T07:44:24;28.70;99.90
32839;DHT22;19182;41.820;12.808;2023-08-24T07:46:49;31.40;99.90
32839;DHT22;19182;41.820;12.808;2023-08-24T07:49:15;31.10;99.90
32839;DHT22;19182;41.820;12.808;2023-08-24T07:51:41;31.10;99.90
32839;DHT22;19182;41.820;12.808;2023-08-24T07:54:08;31.20;99.90
32839;DHT22;19182;41.820;12.808;2023-08-24T07:56:35;31.10;99.90
32839;DHT22;19182;41.820;12.808;2023-08-24T07:59:02;31.20;99.90
32839;DHT22;19182;41.820;12.808;2023-08-24T08:01:28;31.40;99.90
32839;DHT22;19182;41.820;12.808;2023-08-24T08:03:53;31.40;99.90
32839;DHT22;19182;41.820;12.808;2023-08-24T08:06:22;31.80;99.90
32839;DHT22;19182;41.820;12.808;2023-08-24T08:08:50;31.80;99.90
32839;DHT22;19182;41.820;12.808;2023-08-24T08:11:17;31.90;99.90
32839;DHT22;19182;41.820;12.808;2023-08-24T08:13:43;32.00;99.90
32839;DHT22;19182;41.820;12.808;2023-08-24T08:16:09;32.60;99.90
32839;DHT22;19182;41.820;12.808;2023-08-24T08:18:36;32.40;99.90
32839;DHT22;19182;41.820;12.808;2023-08-24T08:21:16;32.60;99.90
32839;DHT22;19182;41.820;12.808;2023-08-24T08:23:46;32.30;99.90
32839;DHT22;19182;41.820;12.808;2023-08-24T08:26:12;32.60;99.90
32839;DHT22;19182;41.820;12.808;2023-08-24T08:28:39;33.10;99.90
32839;DHT22;19182;41.820;12.808;2023-08-24T08:31:07;33.40;99.90
32839;DHT22;19182;41.820;12.808;2023-08-24T08:33:36;33.70;99.90
32839;DHT22;19182;41.820;12.808;2023-08-24T08:36:04;33.90;99.90
32839;DHT22;19182;41.820;12.808;2023-08-24T08:38:30;34.00;99.90
32839;DHT22;19182;41.820;12.808;2023-08-24T08:41:03;34.30;99.90
32839;DHT22;19182;41.820;12.808;2023-08-24T08:43:31;34.40;99.90
32839;DHT22;19182;41.820;12.808;2023-08-24T08:45:56;34.40;99.90
32839;DHT22;19182;41.820;12.808;2023-08-24T08:48:24;34.30;99.90
32839;DHT22;19182;41.820;12.808;2023-08-24T08:50:51;34.60;99.90
32839;DHT22;19182;41.820;12.808;2023-08-24T08:53:23;34.80;99.90
32839;DHT22;19182;41.820;12.808;2023-08-24T08:55:54;35.10;99.90
32839;DHT22;19182;41.820;12.808;2023-08-24T08:58:20;35.20;99.90
32839;DHT22;19182;41.820;12.808;2023-08-24T09:00:47;35.20;99.90
32839;DHT22;19182;41.820;12.808;2023-08-24T09:03:17;35.50;99.90
32839;DHT22;19182;41.820;12.808;2023-08-24T09:05:44;35.90;99.90
32839;DHT22;19182;41.820;12.808;2023-08-24T09:08:15;36.00;99.00
32839;DHT22;19182;41.820;12.808;2023-08-24T09:10:41;36.30;99.10
32839;DHT22;19182;41.820;12.808;2023-08-24T09:13:07;36.40;97.60
32839;DHT22;19182;41.820;12.808;2023-08-24T09:15:36;36.50;96.80
32839;DHT22;19182;41.820;12.808;2023-08-24T09:18:02;36.70;98.70
32839;DHT22;19182;41.820;12.808;2023-08-24T09:20:29;36.90;96.40
32839;DHT22;19182;41.820;12.808;2023-08-24T09:22:55;37.30;96.90
32839;DHT22;19182;41.820;12.808;2023-08-24T09:25:23;37.50;96.00
32839;DHT22;19182;41.820;12.808;2023-08-24T09:28:00;37.80;96.00
32839;DHT22;19182;41.820;12.808;2023-08-24T09:30:30;38.00;94.90
32839;DHT22;19182;41.820;12.808;2023-08-24T09:33:02;38.30;94.10
32839;DHT22;19182;41.820;12.808;2023-08-24T09:35:28;38.30;92.30
32839;DHT22;19182;41.820;12.808;2023-08-24T09:37:55;37.30;91.00
32839;DHT22;19182;41.820;12.808;2023-08-24T09:40:25;38.20;91.90
32839;DHT22;19182;41.820;12.808;2023-08-24T09:42:52;38.50;91.40
32839;DHT22;19182;41.820;12.808;2023-08-24T09:45:20;38.40;90.60
32839;DHT22;19182;41.820;12.808;2023-08-24T09:47:50;38.60;90.20
32839;DHT22;19182;41.820;12.808;2023-08-24T09:50:16;38.70;85.30
32839;DHT22;19182;41.820;12.808;2023-08-24T09:52:45;38.70;79.30
32839;DHT22;19182;41.820;12.808;2023-08-24T09:55:12;38.60;76.60
32839;DHT22;19182;41.820;12.808;2023-08-24T09:57:39;38.80;77.10
32839;DHT22;19182;41.820;12.808;2023-08-24T10:00:09;38.90;70.10
32839;DHT22;19182;41.820;12.808;2023-08-24T10:02:56;39.00;70.50
32839;DHT22;19182;41.820;12.808;2023-08-24T10:05:29;39.00;74.40
32839;DHT22;19182;41.820;12.808;2023-08-24T10:07:56;38.80;69.30
32839;DHT22;19182;41.820;12.808;2023-08-24T10:10:29;38.90;65.80
32839;DHT22;19182;41.820;12.808;2023-08-24T10:13:00;39.10;66.50
32839;DHT22;19182;41.820;12.808;2023-08-24T10:15:32;39.20;68.50
32839;DHT22;19182;41.820;12.808;2023-08-24T10:18:00;39.40;71.50
32839;DHT22;19182;41.820;12.808;2023-08-24T10:20:26;39.30;69.60
32839;DHT22;19182;41.820;12.808;2023-08-24T10:22:53;39.50;71.90
32839;DHT22;19182;41.820;12.808;2023-08-24T10:25:19;39.70;72.40
32839;DHT22;19182;41.820;12.808;2023-08-24T10:27:45;39.70;70.50
32839;DHT22;19182;41.820;12.808;2023-08-24T10:30:14;39.40;69.20
32839;DHT22;19182;41.820;12.808;2023-08-24T10:32:41;39.60;68.80
32839;DHT22;19182;41.820;12.808;2023-08-24T10:35:08;38.20;64.90
32839;DHT22;19182;41.820;12.808;2023-08-24T10:37:34;39.50;64.40
32839;DHT22;19182;41.820;12.808;2023-08-24T10:40:00;39.50;67.90
32839;DHT22;19182;41.820;12.808;2023-08-24T10:42:42;39.80;67.80
32839;DHT22;19182;41.820;12.808;2023-08-24T10:45:08;39.80;65.10
32839;DHT22;19182;41.820;12.808;2023-08-24T10:47:44;39.60;64.00
32839;DHT22;19182;41.820;12.808;2023-08-24T10:50:11;39.40;63.10
32839;DHT22;19182;41.820;12.808;2023-08-24T10:52:37;39.40;62.80
32839;DHT22;19182;41.820;12.808;2023-08-24T10:55:27;39.70;63.90
32839;DHT22;19182;41.820;12.808;2023-08-24T10:57:58;39.90;64.70
32839;DHT22;19182;41.820;12.808;2023-08-24T11:00:31;39.90;65.20
32839;DHT22;19182;41.820;12.808;2023-08-24T11:02:57;39.90;64.40
32839;DHT22;19182;41.820;12.808;2023-08-24T11:05:29;39.80;60.00
32839;DHT22;19182;41.820;12.808;2023-08-24T11:07:58;39.90;59.10
32839;DHT22;19182;41.820;12.808;2023-08-24T11:13:16;39.90;58.50
32839;DHT22;19182;41.820;12.808;2023-08-24T11:15:54;40.20;58.10
32839;DHT22;19182;41.820;12.808;2023-08-24T11:18:27;40.40;59.30
32839;DHT22;19182;41.820;12.808;2023-08-24T11:20:56;40.60;58.20
32839;DHT22;19182;41.820;12.808;2023-08-24T11:23:25;40.60;58.90
32839;DHT22;19182;41.820;12.808;2023-08-24T11:25:53;40.40;57.80
32839;DHT22;19182;41.820;12.808;2023-08-24T11:28:23;40.10;57.30
32839;DHT22;19182;41.820;12.808;2023-08-24T11:30:53;40.20;57.20
32839;DHT22;19182;41.820;12.808;2023-08-24T11:33:35;40.30;56.80
32839;DHT22;19182;41.820;12.808;2023-08-24T11:36:04;40.00;58.20
32839;DHT22;19182;41.820;12.808;2023-08-24T11:38:39;39.90;57.60
32839;DHT22;19182;41.820;12.808;2023-08-24T11:41:16;39.80;57.00
32839;DHT22;19182;41.820;12.808;2023-08-24T11:43:44;40.00;57.30
32839;DHT22;19182;41.820;12.808;2023-08-24T11:46:10;40.20;57.30
32839;DHT22;19182;41.820;12.808;2023-08-24T11:48:38;40.10;55.60
32839;DHT22;19182;41.820;12.808;2023-08-24T11:51:08;40.00;59.60
32839;DHT22;19182;41.820;12.808;2023-08-24T11:53:39;40.00;58.70
32839;DHT22;19182;41.820;12.808;2023-08-24T11:56:05;40.10;59.30
32839;DHT22;19182;41.820;12.808;2023-08-24T11:58:33;40.00;59.90
32839;DHT22;19182;41.820;12.808;2023-08-24T12:00:59;40.10;58.10
32839;DHT22;19182;41.820;12.808;2023-08-24T12:03:25;40.30;58.70
32839;DHT22;19182;41.820;12.808;2023-08-24T12:05:52;40.50;58.60
32839;DHT22;19182;41.820;12.808;2023-08-24T12:08:18;40.20;59.60
32839;DHT22;19182;41.820;12.808;2023-08-24T12:10:44;40.10;57.90
32839;DHT22;19182;41.820;12.808;2023-08-24T12:13:12;40.00;56.40
32839;DHT22;19182;41.820;12.808;2023-08-24T12:15:38;39.70;55.80
32839;DHT22;19182;41.820;12.808;2023-08-24T12:18:11;39.80;55.70
32839;DHT22;19182;41.820;12.808;2023-08-24T12:20:37;40.00;56.70
32839;DHT22;19182;41.820;12.808;2023-08-24T12:23:04;40.20;55.80
32839;DHT22;19182;41.820;12.808;2023-08-24T12:25:29;40.10;56.50
32839;DHT22;19182;41.820;12.808;2023-08-24T12:28:10;40.10;56.80
32839;DHT22;19182;41.820;12.808;2023-08-24T12:30:50;40.10;57.60
32839;DHT22;19182;41.820;12.808;2023-08-24T12:33:24;40.30;58.00
32839;DHT22;19182;41.820;12.808;2023-08-24T12:35:51;40.30;57.80
32839;DHT22;19182;41.820;12.808;2023-08-24T12:38:17;40.30;56.10
32839;DHT22;19182;41.820;12.808;2023-08-24T12:40:42;40.10;55.00
32839;DHT22;19182;41.820;12.808;2023-08-24T12:43:08;39.90;56.20
32839;DHT22;19182;41.820;12.808;2023-08-24T12:45:34;39.80;57.10
32839;DHT22;19182;41.820;12.808;2023-08-24T12:47:59;39.90;58.10
32839;DHT22;19182;41.820;12.808;2023-08-24T12:50:25;40.00;58.90
32839;DHT22;19182;41.820;12.808;2023-08-24T12:52:51;39.90;59.80
32839;DHT22;19182;41.820;12.808;2023-08-24T12:55:20;39.80;60.90
32839;DHT22;19182;41.820;12.808;2023-08-24T12:57:46;39.90;59.70
32839;DHT22;19182;41.820;12.808;2023-08-24T13:00:13;39.80;59.10
32839;DHT22;19182;41.820;12.808;2023-08-24T13:02:39;39.70;58.50
32839;DHT22;19182;41.820;12.808;2023-08-24T13:05:05;39.40;58.30
32839;DHT22;19182;41.820;12.808;2023-08-24T13:07:31;39.30;58.40
32839;DHT22;19182;41.820;12.808;2023-08-24T13:09:57;39.10;59.80
32839;DHT22;19182;41.820;12.808;2023-08-24T13:12:23;39.20;59.20
32839;DHT22;19182;41.820;12.808;2023-08-24T13:14:49;39.10;57.60
32839;DHT22;19182;41.820;12.808;2023-08-24T13:17:15;39.10;57.80
32839;DHT22;19182;41.820;12.808;2023-08-24T13:19:41;39.00;59.40
32839;DHT22;19182;41.820;12.808;2023-08-24T13:22:06;38.80;59.00
32839;DHT22;19182;41.820;12.808;2023-08-24T13:24:33;38.90;59.70
32839;DHT22;19182;41.820;12.808;2023-08-24T13:26:59;38.80;58.70
32839;DHT22;19182;41.820;12.808;2023-08-24T13:29:25;38.70;59.30
32839;DHT22;19182;41.820;12.808;2023-08-24T13:31:51;38.60;58.60
32839;DHT22;19182;41.820;12.808;2023-08-24T13:34:17;38.50;58.00
32839;DHT22;19182;41.820;12.808;2023-08-24T13:36:44;38.50;57.70
32839;DHT22;19182;41.820;12.808;2023-08-24T13:39:09;38.40;59.20
32839;DHT22;19182;41.820;12.808;2023-08-24T13:41:36;38.20;60.40
32839;DHT22;19182;41.820;12.808;2023-08-24T13:44:03;38.10;60.70
32839;DHT22;19182;41.820;12.808;2023-08-24T13:46:28;38.20;60.90
32839;DHT22;19182;41.820;12.808;2023-08-24T13:48:54;38.10;60.60
32839;DHT22;19182;41.820;12.808;2023-08-24T13:51:20;38.00;60.60
32839;DHT22;19182;41.820;12.808;2023-08-24T13:53:46;37.90;61.70
32839;DHT22;19182;41.820;12.808;2023-08-24T13:56:12;37.80;60.60
32839;DHT22;19182;41.820;12.808;2023-08-24T13:58:38;37.60;60.10
32839;DHT22;19182;41.820;12.808;2023-08-24T14:01:04;37.50;60.00
32839;DHT22;19182;41.820;12.808;2023-08-24T14:03:29;37.60;60.10
32839;DHT22;19182;41.820;12.808;2023-08-24T14:05:57;37.60;61.10
32839;DHT22;19182;41.820;12.808;2023-08-24T14:08:23;37.70;59.00
32839;DHT22;19182;41.820;12.808;2023-08-24T14:10:49;37.50;58.10
32839;DHT22;19182;41.820;12.808;2023-08-24T14:13:16;37.40;59.10
32839;DHT22;19182;41.820;12.808;2023-08-24T14:15:42;37.00;57.60
32839;DHT22;19182;41.820;12.808;2023-08-24T14:18:11;37.00;58.70
32839;DHT22;19182;41.820;12.808;2023-08-24T14:20:37;36.90;59.70
32839;DHT22;19182;41.820;12.808;2023-08-24T14:23:03;36.40;57.80
32839;DHT22;19182;41.820;12.808;2023-08-24T14:25:29;36.70;59.40
32839;DHT22;19182;41.820;12.808;2023-08-24T14:27:55;36.70;60.90
32839;DHT22;19182;41.820;12.808;2023-08-24T14:30:20;36.60;62.20
32839;DHT22;19182;41.820;12.808;2023-08-24T14:32:46;36.70;59.90
32839;DHT22;19182;41.820;12.808;2023-08-24T14:35:12;36.40;59.60
32839;DHT22;19182;41.820;12.808;2023-08-24T14:37:37;36.50;59.80
32839;DHT22;19182;41.820;12.808;2023-08-24T14:40:05;36.40;59.20
32839;DHT22;19182;41.820;12.808;2023-08-24T14:42:50;36.40;60.00
32839;DHT22;19182;41.820;12.808;2023-08-24T14:45:38;36.30;59.40
32839;DHT22;19182;41.820;12.808;2023-08-24T14:48:03;36.20;60.00
32839;DHT22;19182;41.820;12.808;2023-08-24T14:50:29;36.20;60.90
32839;DHT22;19182;41.820;12.808;2023-08-24T14:52:55;36.20;59.00
32839;DHT22;19182;41.820;12.808;2023-08-24T14:55:20;36.10;59.50
32839;DHT22;19182;41.820;12.808;2023-08-24T14:57:46;35.90;59.30
32839;DHT22;19182;41.820;12.808;2023-08-24T15:00:12;35.70;59.60
32839;DHT22;19182;41.820;12.808;2023-08-24T15:02:38;35.80;60.20
32839;DHT22;19182;41.820;12.808;2023-08-24T15:05:05;35.60;59.90
32839;DHT22;19182;41.820;12.808;2023-08-24T15:07:31;35.60;61.10
32839;DHT22;19182;41.820;12.808;2023-08-24T15:09:58;35.70;60.60
32839;DHT22;19182;41.820;12.808;2023-08-24T15:12:23;35.70;60.70
32839;DHT22;19182;41.820;12.808;2023-08-24T15:15:00;35.70;61.00
32839;DHT22;19182;41.820;12.808;2023-08-24T15:17:28;35.70;63.40
32839;DHT22;19182;41.820;12.808;2023-08-24T15:19:58;35.50;61.50
32839;DHT22;19182;41.820;12.808;2023-08-24T15:22:27;35.50;63.80
32839;DHT22;19182;41.820;12.808;2023-08-24T15:24:58;35.40;63.30